Time;durP1;ratioP1;P1;durP2;ratioP2;P2;SDS_P1;SDS_P2;PMS_P1;PMS_P2;Temp;Humidity;BMP_temperature;BMP_pressure;BME280_temperature;BME280_humidity;BME280_pressure;Samples;Min_cycle;Max_cycle;Signal;HPM_P1;HPM_P2
2024/04/02 00:00:37;;;;;;;2.08;1.50;;;10.10;85.80;;;;;;5074464;28;20029;-30
2024/04/02 00:03:07;;;;;;;1.92;1.50;;;10.10;85.80;;;;;;5074168;28;20040;-30
2024/04/02 00:05:34;;;;;;;2.30;1.50;;;10.10;85.90;;;;;;5072964;28;20048;-34
2024/04/02 00:08:02;;;;;;;2.88;1.48;;;10.00;85.80;;;;;;5074274;28;20020;-32
2024/04/02 00:10:28;;;;;;;2.67;1.60;;;10.00;85.90;;;;;;5074823;28;20013;-32
2024/04/02 00:12:54;;;;;;;2.67;1.40;;;10.00;85.90;;;;;;5074161;28;20028;-31
2024/04/02 00:15:19;;;;;;;1.90;1.38;;;10.00;86.00;;;;;;5074377;28;20023;-31
2024/04/02 00:17:45;;;;;;;3.03;1.52;;;10.00;86.00;;;;;;5073928;28;20086;-31
2024/04/02 00:20:11;;;;;;;1.20;1.10;;;10.00;86.00;;;;;;5074372;28;20020;-31
2024/04/02 00:22:37;;;;;;;2.88;1.25;;;10.00;86.00;;;;;;5074099;28;20477;-38
2024/04/02 00:25:03;;;;;;;2.90;1.38;;;10.00;86.00;;;;;;5074240;28;20017;-36
2024/04/02 00:27:29;;;;;;;2.13;1.30;;;9.90;86.10;;;;;;5073862;28;20095;-32
2024/04/02 00:29:55;;;;;;;2.53;1.50;;;9.90;86.10;;;;;;5073927;28;20045;-31
2024/04/02 00:32:22;;;;;;;1.42;1.20;;;9.90;86.10;;;;;;5073806;28;20039;-31
2024/04/02 00:34:47;;;;;;;1.20;1.10;;;9.90;86.10;;;;;;5073725;28;20028;-31
2024/04/02 00:37:13;;;;;;;1.63;1.10;;;9.90;86.10;;;;;;5073622;28;20125;-35
2024/04/02 00:39:39;;;;;;;1.23;1.13;;;9.90;86.10;;;;;;5073742;28;20031;-34
2024/04/02 00:42:05;;;;;;;0.85;0.85;;;9.80;86.10;;;;;;5073579;28;20021;-31
2024/04/02 00:44:33;;;;;;;2.38;1.20;;;9.80;86.10;;;;;;5073862;28;20489;-32
2024/04/02 00:46:59;;;;;;;1.58;1.20;;;9.80;86.10;;;;;;5073640;28;20028;-31
2024/04/02 00:49:25;;;;;;;1.92;1.08;;;9.80;86.20;;;;;;5073502;28;20051;-33
2024/04/02 00:51:51;;;;;;;1.63;1.05;;;9.80;86.20;;;;;;5073445;28;20035;-32
2024/04/02 00:54:17;;;;;;;1.10;1.00;;;9.80;86.30;;;;;;5072093;28;20029;-32
2024/04/02 00:56:44;;;;;;;1.08;0.90;;;9.80;86.30;;;;;;5073287;28;20520;-31
2024/04/02 00:59:10;;;;;;;1.33;0.95;;;9.80;86.30;;;;;;5073345;28;20021;-32
2024/04/02 01:01:37;;;;;;;1.55;0.95;;;9.80;86.30;;;;;;5072465;28;20051;-31
2024/04/02 01:04:03;;;;;;;2.63;1.10;;;9.80;86.50;;;;;;5073172;28;20432;-30
2024/04/02 01:06:29;;;;;;;1.02;0.75;;;9.70;86.30;;;;;;5071799;28;20024;-31
2024/04/02 01:08:55;;;;;;;4.10;1.10;;;9.70;86.30;;;;;;5073437;28;20528;-32
2024/04/02 01:11:21;;;;;;;1.58;0.93;;;9.70;86.90;;;;;;5071780;28;20032;-31
2024/04/02 01:13:47;;;;;;;1.80;1.00;;;9.70;86.30;;;;;;5072963;28;20436;-30
2024/04/02 01:16:16;;;;;;;2.83;1.77;;;9.70;86.30;;;;;;5072889;28;20028;-30
2024/04/02 01:18:46;;;;;;;1.27;0.82;;;9.70;86.30;;;;;;5073018;28;20039;-33
2024/04/02 01:21:12;;;;;;;1.20;0.88;;;9.70;86.30;;;;;;5073103;28;20027;-30
2024/04/02 01:23:38;;;;;;;1.45;0.90;;;9.70;86.30;;;;;;5072862;28;20033;-32
2024/04/02 01:26:04;;;;;;;1.08;0.80;;;9.70;86.30;;;;;;5072910;28;20028;-31
2024/04/02 01:28:29;;;;;;;1.85;1.13;;;9.60;86.30;;;;;;5072765;28;20052;-33
2024/04/02 01:30:55;;;;;;;4.50;1.08;;;9.70;86.40;;;;;;5072996;28;20070;-31
2024/04/02 01:33:21;;;;;;;1.30;1.08;;;9.60;86.40;;;;;;5072900;28;20027;-33
2024/04/02 01:35:46;;;;;;;1.40;1.02;;;9.60;86.40;;;;;;5072420;28;20020;-33
2024/04/02 01:38:12;;;;;;;2.35;1.02;;;9.60;86.50;;;;;;5072444;28;20040;-31
2024/04/02 01:40:38;;;;;;;1.00;0.90;;;9.60;86.50;;;;;;5072522;28;20025;-31
2024/04/02 01:43:04;;;;;;;1.73;1.27;;;9.50;86.60;;;;;;5072405;28;20021;-33
2024/04/02 01:45:29;;;;;;;1.73;1.10;;;9.50;86.60;;;;;;5072245;28;20028;-30
2024/04/02 01:47:55;;;;;;;1.48;1.00;;;9.50;86.70;;;;;;5072205;28;20058;-31
2024/04/02 01:50:20;;;;;;;1.17;1.08;;;9.50;86.70;;;;;;5072559;28;20036;-34
2024/04/02 01:52:46;;;;;;;2.75;1.20;;;9.50;86.80;;;;;;5072522;28;20021;-34
2024/04/02 01:55:11;;;;;;;1.50;1.10;;;9.50;86.80;;;;;;5072098;28;20025;-33
2024/04/02 01:57:37;;;;;;;1.73;1.38;;;9.50;86.90;;;;;;5072025;28;20082;-33
2024/04/02 02:00:04;;;;;;;1.30;1.20;;;9.50;86.90;;;;;;5072075;28;20023;-31
2024/04/02 02:02:29;;;;;;;2.08;1.10;;;9.50;87.00;;;;;;5072392;28;20486;-32
2024/04/02 02:04:56;;;;;;;0.90;0.90;;;9.40;87.00;;;;;;5072002;28;20029;-31
2024/04/02 02:07:22;;;;;;;2.42;1.10;;;9.40;87.00;;;;;;5071740;28;20028;-32
2024/04/02 02:09:47;;;;;;;1.60;1.10;;;9.40;87.00;;;;;;5071887;28;20466;-30
2024/04/02 02:12:13;;;;;;;2.90;1.20;;;9.40;87.00;;;;;;5071285;28;20028;-31
2024/04/02 02:14:38;;;;;;;1.25;1.00;;;9.40;87.20;;;;;;5071757;28;20067;-34
2024/04/02 02:17:04;;;;;;;2.97;1.20;;;9.30;87.20;;;;;;5071631;28;20496;-31
2024/04/02 02:19:30;;;;;;;1.02;0.93;;;9.30;87.20;;;;;;5071754;28;20107;-32
2024/04/02 02:21:55;;;;;;;4.28;1.35;;;9.30;87.20;;;;;;5072212;28;20016;-30
2024/04/02 02:24:21;;;;;;;1.33;1.10;;;9.30;87.30;;;;;;5072097;28;20031;-30
2024/04/02 02:26:47;;;;;;;1.77;1.23;;;9.30;87.40;;;;;;5072068;28;20024;-31
2024/04/02 02:29:12;;;;;;;1.60;1.17;;;9.30;87.40;;;;;;5070325;28;20397;-32
2024/04/02 02:31:39;;;;;;;1.90;1.42;;;9.30;87.40;;;;;;5071663;28;20028;-33
2024/04/02 02:34:05;;;;;;;1.63;1.27;;;9.30;87.50;;;;;;5071417;28;20060;-32
2024/04/02 02:36:30;;;;;;;1.80;1.17;;;9.20;87.50;;;;;;5071399;28;20059;-30
2024/04/02 02:38:56;;;;;;;2.05;1.30;;;9.20;87.50;;;;;;5071799;28;20020;-30
2024/04/02 02:41:22;;;;;;;1.30;1.20;;;9.20;87.60;;;;;;5071503;28;20017;-33
2024/04/02 02:43:48;;;;;;;1.38;1.02;;;9.20;88.20;;;;;;5071721;28;20052;-30
2024/04/02 02:46:14;;;;;;;3.08;1.23;;;9.20;87.70;;;;;;5071382;28;20028;-31
2024/04/02 02:48:39;;;;;;;1.20;1.10;;;9.20;87.80;;;;;;5071386;28;20082;-29
2024/04/02 02:51:05;;;;;;;2.50;1.17;;;9.20;87.80;;;;;;5071622;28;20095;-32
2024/04/02 02:53:30;;;;;;;1.35;1.10;;;9.20;87.90;;;;;;5071440;28;20035;-31
2024/04/02 02:55:58;;;;;;;1.80;1.15;;;9.10;87.90;;;;;;5071373;28;20025;-30
2024/04/02 02:58:24;;;;;;;1.88;1.20;;;9.10;87.90;;;;;;5071394;28;20013;-31
2024/04/02 03:00:49;;;;;;;1.92;1.23;;;9.10;88.00;;;;;;5070947;28;20027;-33
2024/04/02 03:03:15;;;;;;;1.45;1.20;;;9.10;88.00;;;;;;5071432;28;20365;-34
2024/04/02 03:05:41;;;;;;;2.15;1.10;;;9.10;88.00;;;;;;5071410;28;20016;-31
2024/04/02 03:08:07;;;;;;;2.75;1.30;;;9.10;88.10;;;;;;5071308;28;20492;-32
2024/04/02 03:10:32;;;;;;;1.13;0.98;;;9.10;88.20;;;;;;5071299;28;20056;-31
2024/04/02 03:12:58;;;;;;;2.45;1.15;;;9.00;88.20;;;;;;5071288;28;20021;-30
2024/04/02 03:15:23;;;;;;;3.55;1.13;;;9.00;88.20;;;;;;5071413;28;20063;-40
2024/04/02 03:17:49;;;;;;;1.92;1.15;;;9.00;88.30;;;;;;5071034;28;20028;-30
2024/04/02 03:20:15;;;;;;;1.58;1.10;;;9.00;88.30;;;;;;5069738;28;20067;-30
2024/04/02 03:22:41;;;;;;;3.08;1.25;;;9.00;88.40;;;;;;5071038;28;20017;-31
2024/04/02 03:25:06;;;;;;;1.63;1.20;;;9.00;88.50;;;;;;5074137;28;20074;-30
2024/04/02 03:27:32;;;;;;;1.73;1.17;;;8.90;88.50;;;;;;5074900;28;20024;-32
2024/04/02 03:29:58;;;;;;;2.05;1.00;;;8.90;88.50;;;;;;5075059;28;20024;-30
2024/04/02 03:32:23;;;;;;;2.05;1.27;;;8.90;88.60;;;;;;5074864;28;20020;-33
2024/04/02 03:34:49;;;;;;;2.47;1.30;;;8.90;88.70;;;;;;5074929;28;20032;-31
2024/04/02 03:37:15;;;;;;;1.35;1.10;;;8.90;88.70;;;;;;5073274;28;20043;-31
2024/04/02 03:39:40;;;;;;;1.63;1.17;;;8.90;88.70;;;;;;5075204;28;20047;-35
2024/04/02 03:42:06;;;;;;;1.67;1.05;;;8.90;88.80;;;;;;5074623;28;20075;-31
2024/04/02 03:44:33;;;;;;;1.30;1.20;;;8.80;88.70;;;;;;5074565;28;20036;-31
2024/04/02 03:47:00;;;;;;;2.72;1.30;;;8.80;88.80;;;;;;5074816;28;20465;-34
2024/04/02 03:49:26;;;;;;;2.20;1.40;;;8.80;88.90;;;;;;5074487;28;20032;-31
2024/04/02 03:51:51;;;;;;;1.50;1.35;;;8.80;88.90;;;;;;5073227;28;20032;-34
2024/04/02 03:54:17;;;;;;;2.28;1.02;;;8.80;88.90;;;;;;5074327;28;20035;-31
2024/04/02 03:56:42;;;;;;;2.40;1.20;;;8.80;89.00;;;;;;5074274;28;20032;-31
2024/04/02 03:59:08;;;;;;;1.88;1.20;;;8.80;89.00;;;;;;5074520;28;20027;-32
2024/04/02 04:01:34;;;;;;;2.38;1.50;;;8.80;89.10;;;;;;5074144;28;20099;-33
2024/04/02 04:03:59;;;;;;;1.92;1.20;;;8.70;89.00;;;;;;5074966;28;20056;-31
2024/04/02 04:06:25;;;;;;;1.85;1.23;;;8.70;89.20;;;;;;5074067;28;20431;-32
2024/04/02 04:08:50;;;;;;;2.58;1.30;;;8.80;89.20;;;;;;5074556;28;20035;-31
2024/04/02 04:11:17;;;;;;;1.23;0.90;;;8.70;89.20;;;;;;5072740;28;20362;-32
2024/04/02 04:13:43;;;;;;;2.25;1.83;;;8.70;89.30;;;;;;5074082;28;20103;-31
2024/04/02 04:16:08;;;;;;;3.47;1.80;;;8.70;89.30;;;;;;5074107;28;20063;-34
2024/04/02 04:18:34;;;;;;;1.75;1.23;;;8.70;89.30;;;;;;5074187;28;20016;-32
2024/04/02 04:21:01;;;;;;;2.88;1.60;;;8.70;89.30;;;;;;5074334;28;20039;-30
2024/04/02 04:23:27;;;;;;;3.85;1.48;;;8.70;89.40;;;;;;5074245;28;20029;-31
2024/04/02 04:26:07;;;;;;;2.22;1.40;;;8.70;89.40;;;;;;5073981;28;20530;-36
2024/04/02 04:28:33;;;;;;;1.88;1.45;;;8.70;89.40;;;;;;5073916;28;20055;-35
2024/04/02 04:31:00;;;;;;;2.03;1.50;;;8.70;89.40;;;;;;5073853;28;20048;-44
2024/04/02 04:33:27;;;;;;;1.90;1.27;;;8.70;89.50;;;;;;5073660;28;20103;-30
2024/04/02 04:35:53;;;;;;;2.67;1.60;;;8.70;89.50;;;;;;5072892;28;20027;-31
2024/04/02 04:38:19;;;;;;;2.22;1.40;;;8.70;89.60;;;;;;5073714;28;20049;-30
2024/04/02 04:40:46;;;;;;;4.55;1.38;;;8.70;89.70;;;;;;5073596;28;20095;-32
2024/04/02 04:43:14;;;;;;;2.22;1.50;;;8.70;89.70;;;;;;5073691;28;20046;-30
2024/04/02 04:45:39;;;;;;;2.38;1.38;;;8.70;89.70;;;;;;5073468;28;20032;-37
2024/04/02 04:48:06;;;;;;;2.35;1.38;;;8.70;89.70;;;;;;5073370;28;20028;-34
2024/04/02 04:50:33;;;;;;;1.95;1.30;;;8.70;89.70;;;;;;5073790;28;20028;-32
2024/04/02 04:52:59;;;;;;;2.72;1.45;;;8.70;89.70;;;;;;5073555;28;20029;-30
2024/04/02 04:55:25;;;;;;;2.78;1.50;;;8.70;89.70;;;;;;5071960;28;20409;-34
2024/04/02 04:57:51;;;;;;;1.92;1.52;;;8.80;89.70;;;;;;5073370;28;20020;-29
2024/04/02 05:00:16;;;;;;;2.33;1.35;;;8.90;89.70;;;;;;5073600;28;20052;-31
2024/04/02 05:02:42;;;;;;;5.70;1.40;;;9.00;89.60;;;;;;5073062;28;20029;-32
2024/04/02 05:05:07;;;;;;;1.70;1.40;;;9.00;89.50;;;;;;5073271;28;20047;-30
2024/04/02 05:07:33;;;;;;;3.40;1.70;;;9.00;89.30;;;;;;5073023;28;20032;-31
2024/04/02 05:09:58;;;;;;;3.75;1.13;;;9.10;89.90;;;;;;5073208;28;20033;-30
2024/04/02 05:12:24;;;;;;;2.03;1.20;;;9.20;89.30;;;;;;5073144;28;20032;-33
2024/04/02 05:14:49;;;;;;;3.55;1.50;;;9.20;89.20;;;;;;5072951;28;20099;-31
2024/04/02 05:17:15;;;;;;;3.83;1.35;;;9.30;89.10;;;;;;5072701;28;20048;-32
2024/04/02 05:19:41;;;;;;;2.35;1.15;;;9.30;89.10;;;;;;5072989;28;20512;-31
2024/04/02 05:22:08;;;;;;;2.55;1.50;;;9.30;89.00;;;;;;5072746;28;20023;-30
2024/04/02 05:24:34;;;;;;;2.55;1.30;;;9.30;89.10;;;;;;5072999;28;20033;-31
2024/04/02 05:27:02;;;;;;;4.15;1.50;;;9.30;89.10;;;;;;5071334;28;20027;-30
2024/04/02 05:29:28;;;;;;;2.15;1.15;;;9.30;89.10;;;;;;5072620;28;20032;-31
2024/04/02 05:31:54;;;;;;;5.07;1.40;;;9.30;89.10;;;;;;5072927;28;20035;-31
2024/04/02 05:34:19;;;;;;;2.42;1.70;;;9.40;89.10;;;;;;5072286;28;20033;-31
2024/04/02 05:36:45;;;;;;;2.17;1.52;;;9.40;89.10;;;;;;5072147;28;20024;-31
2024/04/02 05:39:10;;;;;;;6.45;1.52;;;9.50;89.10;;;;;;5072612;28;20031;-34
2024/04/02 05:41:36;;;;;;;6.93;1.77;;;9.50;89.00;;;;;;5070955;28;20477;-36
2024/04/02 05:44:01;;;;;;;3.53;2.00;;;9.50;88.90;;;;;;5072187;28;20466;-35
2024/04/02 05:46:27;;;;;;;4.82;1.95;;;9.60;88.90;;;;;;5072199;28;20021;-41
2024/04/02 05:48:52;;;;;;;2.88;1.60;;;9.70;88.90;;;;;;5072108;28;20108;-35
2024/04/02 05:51:18;;;;;;;2.72;1.60;;;9.70;88.80;;;;;;5072448;28;20025;-39
2024/04/02 05:53:44;;;;;;;3.08;1.70;;;9.70;88.70;;;;;;5072049;28;20380;-41
2024/04/02 05:56:10;;;;;;;4.13;1.67;;;9.70;88.70;;;;;;5072024;28;20453;-40
2024/04/02 05:58:35;;;;;;;3.40;1.20;;;9.80;88.70;;;;;;5072045;28;20067;-38
2024/04/02 06:01:07;;;;;;;3.00;1.50;;;9.80;88.70;;;;;;5071998;28;20460;-37
2024/04/02 06:03:33;;;;;;;3.13;1.70;;;9.80;88.70;;;;;;5071881;28;20028;-40
2024/04/02 06:05:59;;;;;;;3.60;1.40;;;9.90;88.70;;;;;;5071774;28;20024;-33
2024/04/02 06:08:25;;;;;;;3.35;1.30;;;9.90;88.60;;;;;;5071891;28;20095;-37
2024/04/02 06:10:50;;;;;;;2.63;1.48;;;9.90;88.50;;;;;;5072039;28;20303;-37
2024/04/02 06:13:16;;;;;;;3.70;1.40;;;9.90;88.50;;;;;;5071899;28;20017;-33
2024/04/02 06:15:42;;;;;;;2.33;1.40;;;9.90;88.60;;;;;;5070753;28;20118;-31
2024/04/02 06:18:08;;;;;;;4.32;1.40;;;9.90;88.60;;;;;;5072022;28;20047;-34
2024/04/02 06:20:34;;;;;;;1.92;1.40;;;9.90;88.70;;;;;;5071910;28;20032;-33
2024/04/02 06:23:00;;;;;;;4.28;1.52;;;9.90;88.60;;;;;;5071727;28;20408;-36
2024/04/02 06:25:25;;;;;;;2.45;1.58;;;9.90;88.60;;;;;;5071522;28;20085;-30
2024/04/02 06:27:51;;;;;;;2.75;1.52;;;9.90;88.70;;;;;;5071453;28;20024;-29
2024/04/02 06:30:17;;;;;;;3.72;1.80;;;9.90;88.80;;;;;;5071539;28;20025;-32
2024/04/02 06:32:42;;;;;;;4.50;2.00;;;10.00;88.90;;;;;;5071767;28;20128;-32
2024/04/02 06:35:08;;;;;;;6.10;3.17;;;10.10;88.80;;;;;;5071517;28;20489;-35
2024/04/02 06:37:33;;;;;;;4.30;2.78;;;10.10;88.60;;;;;;5071405;28;20048;-30
2024/04/02 06:40:00;;;;;;;4.95;1.80;;;10.10;88.50;;;;;;5071483;28;20027;-34
2024/04/02 06:42:25;;;;;;;3.67;1.90;;;10.20;88.50;;;;;;5071438;28;20020;-30
2024/04/02 06:44:51;;;;;;;3.72;2.00;;;10.30;88.50;;;;;;5071372;28;20027;-33
2024/04/02 06:47:17;;;;;;;3.00;1.52;;;10.30;88.30;;;;;;5071187;28;20021;-33
2024/04/02 06:49:42;;;;;;;2.72;1.67;;;10.40;88.30;;;;;;5071345;28;20101;-31
2024/04/02 06:52:08;;;;;;;5.20;1.77;;;10.40;88.20;;;;;;5071414;28;20036;-30
2024/04/02 06:54:33;;;;;;;6.60;1.85;;;10.50;88.20;;;;;;5069811;28;20030;-44
2024/04/02 06:56:59;;;;;;;1.77;1.67;;;10.50;88.10;;;;;;5071321;28;20021;-32
2024/04/02 06:59:24;;;;;;;6.75;2.20;;;10.50;88.00;;;;;;5075260;28;20035;-32
2024/04/02 07:01:50;;;;;;;5.55;2.33;;;10.50;88.10;;;;;;5077857;28;20017;-30
2024/04/02 07:04:15;;;;;;;4.88;1.80;;;10.50;88.10;;;;;;5078322;28;20033;-32
2024/04/02 07:06:42;;;;;;;4.82;1.70;;;10.50;88.20;;;;;;5077808;28;20028;-32
2024/04/02 07:09:08;;;;;;;5.03;1.88;;;10.50;88.30;;;;;;5077990;28;20488;-31
2024/04/02 07:11:34;;;;;;;5.95;1.85;;;10.50;88.30;;;;;;5078085;28;20550;-33
2024/04/02 07:14:01;;;;;;;4.88;1.70;;;10.50;88.30;;;;;;5078017;28;20024;-34
2024/04/02 07:16:27;;;;;;;9.38;2.42;;;10.50;88.30;;;;;;5076378;28;20052;-32
2024/04/02 07:18:52;;;;;;;7.13;2.60;;;10.50;88.30;;;;;;5078024;28;20055;-33
2024/04/02 07:21:18;;;;;;;4.43;2.47;;;10.50;88.20;;;;;;5077659;28;20388;-31
2024/04/02 07:23:44;;;;;;;6.53;2.17;;;10.50;88.30;;;;;;5077685;28;20035;-36
2024/04/02 07:26:09;;;;;;;5.75;3.38;;;10.60;88.20;;;;;;5077695;28;20081;-30
2024/04/02 07:28:35;;;;;;;4.15;2.10;;;10.60;88.80;;;;;;5077717;28;20067;-33
2024/04/02 07:31:00;;;;;;;4.28;2.10;;;10.60;88.30;;;;;;5077832;28;20070;-30
2024/04/02 07:33:26;;;;;;;7.07;2.80;;;10.60;88.30;;;;;;5076272;28;20393;-35
2024/04/02 07:35:55;;;;;;;4.80;2.60;;;10.60;88.30;;;;;;5077523;28;20045;-32
2024/04/02 07:38:21;;;;;;;6.50;2.47;;;10.70;88.30;;;;;;5076241;28;20118;-36
2024/04/02 07:40:47;;;;;;;5.93;2.33;;;10.70;88.10;;;;;;5077730;28;20020;-30
2024/04/02 07:43:13;;;;;;;6.93;2.50;;;10.70;88.10;;;;;;5077674;28;20523;-34
2024/04/02 07:45:39;;;;;;;5.72;2.55;;;10.70;88.10;;;;;;5077418;28;20040;-32
2024/04/02 07:48:06;;;;;;;7.55;3.60;;;10.70;88.10;;;;;;5077398;28;20029;-30
2024/04/02 07:50:37;;;;;;;5.35;2.42;;;10.80;88.10;;;;;;5077785;28;20139;-32
2024/04/02 07:53:02;;;;;;;10.07;2.78;;;10.80;88.00;;;;;;5077540;28;20020;-31
2024/04/02 07:55:28;;;;;;;5.75;2.47;;;10.80;87.90;;;;;;5077556;28;20435;-29
2024/04/02 07:57:54;;;;;;;8.15;2.22;;;10.80;87.90;;;;;;5077342;28;20021;-35
2024/04/02 08:00:19;;;;;;;7.65;2.33;;;10.80;87.90;;;;;;5077308;28;20020;-34
2024/04/02 08:02:48;;;;;;;6.25;2.25;;;10.90;87.80;;;;;;5077154;28;20381;-34
2024/04/02 08:05:14;;;;;;;6.53;2.30;;;10.90;87.80;;;;;;5077313;28;20032;-31
2024/04/02 08:07:41;;;;;;;7.43;2.45;;;11.00;87.70;;;;;;5077343;28;20032;-34
2024/04/02 08:10:07;;;;;;;9.40;2.55;;;11.00;87.40;;;;;;5075887;28;20066;-32
2024/04/02 08:12:32;;;;;;;6.82;2.50;;;11.00;87.30;;;;;;5073798;28;20032;-36
2024/04/02 08:14:58;;;;;;;7.32;2.75;;;11.00;87.30;;;;;;5074079;28;20079;-29
2024/04/02 08:17:23;;;;;;;7.50;2.50;;;11.00;87.20;;;;;;5073838;28;20534;-34
2024/04/02 08:19:49;;;;;;;7.10;2.42;;;11.00;87.80;;;;;;5074143;28;20013;-33
2024/04/02 08:22:18;;;;;;;6.93;2.60;;;11.00;87.20;;;;;;5074275;28;20098;-33
2024/04/02 08:24:43;;;;;;;9.30;2.47;;;11.00;87.10;;;;;;5074211;28;20024;-37
2024/04/02 08:27:09;;;;;;;5.57;2.13;;;11.00;87.10;;;;;;5073620;28;20028;-31
2024/04/02 08:29:34;;;;;;;6.15;2.20;;;11.00;87.10;;;;;;5073701;28;20082;-33
2024/04/02 08:32:00;;;;;;;5.45;2.08;;;11.10;87.10;;;;;;5073742;28;20024;-30
2024/04/02 08:34:25;;;;;;;7.32;2.20;;;11.00;86.90;;;;;;5073596;28;20058;-37
2024/04/02 08:36:51;;;;;;;8.75;2.92;;;11.00;86.90;;;;;;5073321;28;20033;-31
2024/04/02 08:39:17;;;;;;;6.13;2.38;;;11.00;86.90;;;;;;5073702;28;20084;-35
2024/04/02 08:41:43;;;;;;;7.60;3.10;;;11.10;86.90;;;;;;5073564;28;20033;-31
2024/04/02 08:44:08;;;;;;;9.40;3.33;;;11.10;86.90;;;;;;5073409;28;20064;-31
2024/04/02 08:46:35;;;;;;;5.70;2.45;;;11.10;86.80;;;;;;5073317;28;20048;-31
2024/04/02 08:49:02;;;;;;;4.53;2.05;;;11.20;86.80;;;;;;5073357;28;20078;-30
2024/04/02 08:51:29;;;;;;;7.68;1.80;;;11.20;86.70;;;;;;5073504;28;20478;-32
2024/04/02 08:53:55;;;;;;;7.18;2.35;;;11.20;86.70;;;;;;5073483;28;20422;-33
2024/04/02 08:56:21;;;;;;;6.70;1.83;;;11.20;86.60;;;;;;5073119;28;20111;-31
2024/04/02 08:58:47;;;;;;;6.35;2.20;;;11.30;86.40;;;;;;5073272;28;20541;-32
2024/04/02 09:01:14;;;;;;;7.53;2.10;;;11.30;86.30;;;;;;5073482;28;20035;-34
2024/04/02 09:03:40;;;;;;;7.13;1.90;;;11.30;86.10;;;;;;5073168;28;20020;-33
2024/04/02 09:06:06;;;;;;;7.88;1.85;;;11.40;86.10;;;;;;5072891;28;20033;-39
2024/04/02 09:08:46;;;;;;;12.95;2.55;;;11.40;86.60;;;;;;5072442;28;20064;-38
2024/04/02 09:11:12;;;;;;;7.20;1.85;;;11.50;85.90;;;;;;5071233;28;20024;-36
2024/04/02 09:13:39;;;;;;;5.80;2.13;;;11.50;85.90;;;;;;5071396;28;20031;-31
2024/04/02 09:16:05;;;;;;;5.20;2.00;;;11.50;85.60;;;;;;5071691;28;20426;-34
2024/04/02 09:18:35;;;;;;;10.52;2.20;;;11.60;85.50;;;;;;5070049;28;20051;-33
2024/04/02 09:21:01;;;;;;;8.25;1.75;;;11.60;85.30;;;;;;5071785;28;20045;-33
2024/04/02 09:23:28;;;;;;;5.25;1.80;;;11.60;85.30;;;;;;5070974;28;20024;-33
2024/04/02 09:25:55;;;;;;;6.43;1.67;;;11.60;85.20;;;;;;5071465;28;20021;-32
2024/04/02 09:28:21;;;;;;;6.28;1.88;;;11.60;84.90;;;;;;5071373;28;20040;-31
2024/04/02 09:30:47;;;;;;;5.70;1.90;;;11.70;85.00;;;;;;5072497;28;20104;-32
2024/04/02 09:33:15;;;;;;;5.20;1.90;;;11.70;85.00;;;;;;5072590;28;20021;-35
2024/04/02 09:36:04;;;;;;;8.43;2.00;;;11.80;84.90;;;;;;5072260;28;20071;-33
2024/04/02 09:38:32;;;;;;;5.65;1.80;;;11.90;84.60;;;;;;5072301;28;20032;-37
2024/04/02 09:40:58;;;;;;;11.00;2.03;;;11.90;84.30;;;;;;5072444;28;20477;-34
2024/04/02 09:43:25;;;;;;;4.60;1.70;;;12.00;84.10;;;;;;5072644;28;20074;-32
2024/04/02 09:45:52;;;;;;;5.05;1.50;;;12.00;84.00;;;;;;5072556;28;20067;-34
2024/04/02 09:48:22;;;;;;;7.70;1.60;;;12.00;83.90;;;;;;5072147;28;20033;-37
2024/04/02 09:50:52;;;;;;;5.10;1.60;;;12.00;83.80;;;;;;5072176;28;20029;-35
2024/04/02 09:53:19;;;;;;;7.28;1.98;;;12.00;83.90;;;;;;5072155;28;20048;-36
2024/04/02 09:55:44;;;;;;;5.22;1.75;;;12.10;83.80;;;;;;5071934;28;20044;-33
2024/04/02 09:58:12;;;;;;;6.65;1.50;;;12.20;83.80;;;;;;5072652;28;20021;-38
2024/04/02 10:00:43;;;;;;;5.30;1.63;;;12.30;83.40;;;;;;5072297;28;20366;-38
2024/04/02 10:03:10;;;;;;;7.25;1.80;;;12.50;83.30;;;;;;5071875;28;20020;-38
2024/04/02 10:05:37;;;;;;;5.55;1.90;;;12.60;83.00;;;;;;5071906;28;20036;-35
2024/04/02 10:08:05;;;;;;;6.05;1.63;;;12.70;82.50;;;;;;5072101;28;20028;-41
2024/04/02 10:10:30;;;;;;;7.75;1.52;;;12.80;82.10;;;;;;5072194;28;20025;-35
2024/04/02 10:12:56;;;;;;;4.90;1.58;;;13.00;81.60;;;;;;5071890;28;20036;-37
2024/04/02 10:15:23;;;;;;;8.32;2.03;;;13.00;81.00;;;;;;5071997;28;20476;-39
2024/04/02 10:17:59;;;;;;;6.75;2.28;;;13.10;80.90;;;;;;5071560;28;20029;-39
2024/04/02 10:20:27;;;;;;;7.47;2.22;;;13.20;80.50;;;;;;5072041;28;20384;-33
2024/04/02 10:22:53;;;;;;;5.53;1.70;;;13.30;80.30;;;;;;5071830;28;20074;-39
2024/04/02 10:25:19;;;;;;;9.55;2.17;;;13.40;79.90;;;;;;5071655;28;20033;-38
2024/04/02 10:27:47;;;;;;;4.47;1.85;;;13.40;79.30;;;;;;5071641;28;20473;-36
2024/04/02 10:30:27;;;;;;;5.05;1.63;;;13.40;79.40;;;;;;5071611;28;20033;-34
2024/04/02 10:32:56;;;;;;;6.68;1.77;;;13.30;79.30;;;;;;5071475;28;20032;-35
2024/04/02 10:35:26;;;;;;;3.70;1.60;;;13.30;79.00;;;;;;5071208;28;20110;-33
2024/04/02 10:37:56;;;;;;;4.28;1.58;;;13.20;78.90;;;;;;5071536;28;20036;-36
2024/04/02 10:40:22;;;;;;;3.85;1.38;;;13.10;78.90;;;;;;5071976;28;20593;-34
2024/04/02 10:42:49;;;;;;;4.40;1.25;;;13.00;79.40;;;;;;5071516;28;20044;-33
2024/04/02 10:45:16;;;;;;;3.83;1.50;;;12.80;79.90;;;;;;5071227;28;20043;-32
2024/04/02 10:47:49;;;;;;;2.72;1.27;;;12.80;80.70;;;;;;5071406;28;20041;-29
2024/04/02 10:50:15;;;;;;;3.92;1.40;;;12.80;81.10;;;;;;5071739;28;20048;-31
2024/04/02 10:52:42;;;;;;;3.95;1.38;;;12.80;81.40;;;;;;5071614;28;20028;-32
2024/04/02 10:55:08;;;;;;;3.35;1.50;;;12.80;81.70;;;;;;5071398;28;20028;-33
2024/04/02 10:57:34;;;;;;;5.13;1.83;;;12.80;81.90;;;;;;5071549;28;20021;-32
2024/04/02 11:00:04;;;;;;;4.20;1.50;;;12.80;82.10;;;;;;5071402;28;20021;-30
2024/04/02 11:02:34;;;;;;;3.55;1.40;;;12.90;82.30;;;;;;5071119;28;20081;-31
2024/04/02 11:05:00;;;;;;;2.63;1.15;;;12.90;82.50;;;;;;5071119;28;20078;-31
2024/04/02 11:07:29;;;;;;;4.43;1.50;;;12.90;82.90;;;;;;5071246;28;20435;-37
2024/04/02 11:09:56;;;;;;;3.83;1.42;;;12.90;83.00;;;;;;5071352;28;20481;-33
2024/04/02 11:12:22;;;;;;;3.80;1.20;;;12.90;83.20;;;;;;5071083;28;20361;-45
2024/04/02 11:14:49;;;;;;;5.25;1.50;;;12.90;83.50;;;;;;5070957;28;20029;-38
2024/04/02 11:17:14;;;;;;;4.20;1.38;;;12.90;83.70;;;;;;5069586;28;20079;-30
2024/04/02 11:19:40;;;;;;;4.57;1.55;;;12.90;83.90;;;;;;5070778;28;20056;-30
2024/04/02 11:24:58;;;;;;;2.72;1.30;;;12.90;84.30;;;;;;5070994;28;20465;-31
2024/04/02 11:27:26;;;;;;;6.43;1.67;;;12.80;84.20;;;;;;5070874;28;20075;-32
2024/04/02 11:29:53;;;;;;;5.20;1.40;;;12.70;84.50;;;;;;5071076;28;20560;-35
2024/04/02 11:32:20;;;;;;;4.50;1.65;;;12.60;84.80;;;;;;5070698;28;20037;-35
2024/04/02 11:35:02;;;;;;;4.07;1.50;;;12.60;85.00;;;;;;5070962;28;20782;-33
2024/04/02 11:37:30;;;;;;;4.53;1.60;;;12.70;85.20;;;;;;5069129;28;20049;-34
2024/04/02 11:39:56;;;;;;;4.03;1.08;;;12.80;85.30;;;;;;5070803;28;20397;-37
2024/04/02 11:42:22;;;;;;;5.85;1.40;;;12.90;85.20;;;;;;5069447;28;20024;-34
2024/04/02 11:44:50;;;;;;;3.42;1.35;;;12.90;85.30;;;;;;5071458;28;20028;-32
2024/04/02 11:47:15;;;;;;;3.67;1.45;;;12.90;85.40;;;;;;5074366;28;20436;-33
2024/04/02 11:49:42;;;;;;;6.15;1.48;;;12.90;85.60;;;;;;5074769;28;20034;-31
2024/04/02 11:52:08;;;;;;;3.75;1.13;;;12.90;85.70;;;;;;5074222;28;20028;-32
2024/04/02 11:54:34;;;;;;;4.03;1.52;;;12.80;85.60;;;;;;5074275;28;20029;-31
2024/04/02 12:02:30;;;;;;;3.72;1.40;;;12.60;86.30;;;;;;5074304;28;20511;-31
2024/04/02 12:04:55;;;;;;;5.30;1.45;;;12.40;86.90;;;;;;5072857;28;20043;-35
2024/04/02 12:07:21;;;;;;;3.03;1.30;;;12.20;87.40;;;;;;5074160;28;20028;-33
2024/04/02 12:09:54;;;;;;;2.38;1.13;;;12.10;87.90;;;;;;5074108;28;20035;-31
2024/04/02 12:12:19;;;;;;;6.00;1.40;;;11.90;88.60;;;;;;5073952;28;20031;-32
2024/04/02 12:14:45;;;;;;;3.83;1.50;;;11.80;89.10;;;;;;5074003;28;20028;-32
2024/04/02 12:17:10;;;;;;;3.13;1.05;;;11.80;89.40;;;;;;5073967;28;20025;-31
2024/04/02 12:19:36;;;;;;;4.65;1.52;;;11.90;89.50;;;;;;5073776;28;20539;-33
2024/04/02 12:22:02;;;;;;;3.75;1.77;;;12.10;89.70;;;;;;5073955;28;20025;-33
2024/04/02 12:24:27;;;;;;;3.75;1.60;;;12.10;89.40;;;;;;5073678;28;20032;-36
2024/04/02 12:26:53;;;;;;;3.97;1.45;;;12.10;89.20;;;;;;5073968;28;20035;-42
2024/04/02 12:29:18;;;;;;;4.22;1.40;;;12.10;89.30;;;;;;5073679;28;20500;-37
2024/04/02 12:31:44;;;;;;;4.10;1.60;;;12.10;89.30;;;;;;5073615;28;20122;-30
2024/04/02 12:34:10;;;;;;;2.97;1.55;;;12.20;89.00;;;;;;5073627;28;20089;-35
2024/04/02 12:36:35;;;;;;;4.28;1.60;;;12.30;88.80;;;;;;5073206;28;20029;-33
2024/04/02 12:39:02;;;;;;;4.18;1.75;;;12.50;88.60;;;;;;5073644;28;20028;-29
2024/04/02 12:41:28;;;;;;;4.65;1.52;;;12.60;88.20;;;;;;5073530;28;20032;-30
2024/04/02 12:43:55;;;;;;;4.78;1.50;;;12.70;87.90;;;;;;5073450;28;20033;-31
2024/04/02 12:46:20;;;;;;;3.38;1.52;;;12.70;87.70;;;;;;5073260;28;20052;-30
2024/04/02 12:48:46;;;;;;;3.88;1.50;;;12.70;87.60;;;;;;5073350;28;20090;-34
2024/04/02 12:51:11;;;;;;;4.47;1.50;;;12.60;87.70;;;;;;5073568;28;20024;-31
2024/04/02 12:53:37;;;;;;;3.35;1.52;;;12.60;87.80;;;;;;5073256;28;20082;-31